Terminal Aerodrome Forecast
Issued by NWS

Home | Current Version | Previous Version | Text Only | Print | Product List | Glossary Off
Versions: 1 2 3 4 5 6 7 8 9 10 11 12 13 14 15 16 17

000
FTUS41 KCLE 172300
TAFFDY
TAF
KFDY 172339Z 1800/1824 27012KT P6SM OVC022
      TEMPO 1800/1804 6SM -SHSN OVC018
     FM182100 27008KT P6SM OVC035=

USA.gov is the U.S. government's official web portal to all federal, state and local government web resources and services.